Time;durP1;ratioP1;P1;durP2;ratioP2;P2;SDS_P1;SDS_P2;PMS_P1;PMS_P2;Temp;Humidity;BMP_temperature;BMP_pressure;BME280_temperature;BME280_humidity;BME280_pressure;Samples;Min_cycle;Max_cycle;Signal;HPM_P1;HPM_P2
2023/08/03 00:00:01;;;;;;;9.00;7.93;;;;;;;24.98;51.11;94532.41;5087698;28;20035;-78
2023/08/03 00:02:27;;;;;;;8.63;7.70;;;;;;;24.96;51.26;94537.81;5088981;28;20499;-76
2023/08/03 00:04:53;;;;;;;10.13;7.97;;;;;;;24.95;51.16;94538.34;5088975;28;20024;-76
2023/08/03 00:07:18;;;;;;;10.60;8.05;;;;;;;24.93;51.18;94536.06;5071026;28;20090;-77
2023/08/03 00:09:46;;;;;;;9.80;8.40;;;;;;;24.88;51.41;94537.69;5087234;28;20063;-77
2023/08/03 00:12:11;;;;;;;9.50;8.50;;;;;;;24.88;51.66;94537.69;5089091;28;20027;-77
2023/08/03 00:14:37;;;;;;;8.57;7.65;;;;;;;24.86;51.47;94536.72;5087533;28;20028;-77
2023/08/03 00:17:02;;;;;;;8.48;7.60;;;;;;;24.82;51.93;94533.47;5087682;28;20020;-77
2023/08/03 00:19:27;;;;;;;8.98;8.07;;;;;;;24.80;51.78;94531.22;5089145;28;20583;-77
2023/08/03 00:21:53;;;;;;;9.73;8.73;;;;;;;24.79;51.85;94529.72;5088861;28;20266;-77
2023/08/03 00:24:18;;;;;;;9.98;8.98;;;;;;;24.76;51.99;94524.41;5088775;28;20457;-77
2023/08/03 00:26:44;;;;;;;10.13;8.57;;;;;;;24.72;52.12;94521.19;5070154;28;20527;-77
2023/08/03 00:29:09;;;;;;;10.48;7.90;;;;;;;24.69;52.46;94525.81;5088865;28;20646;-77
2023/08/03 00:31:34;;;;;;;8.27;7.45;;;;;;;24.68;52.40;94523.53;5088282;28;20020;-77
2023/08/03 00:34:00;;;;;;;9.43;8.43;;;;;;;24.64;52.43;94524.63;5088475;28;20040;-77
2023/08/03 00:36:25;;;;;;;10.48;7.75;;;;;;;24.61;52.26;94525.72;5087073;28;20099;-76
2023/08/03 00:38:50;;;;;;;10.63;8.23;;;;;;;24.61;52.46;94527.75;5088344;28;20032;-76
2023/08/03 00:41:16;;;;;;;8.95;7.72;;;;;;;24.61;52.60;94522.16;5086916;28;20047;-78
2023/08/03 00:43:42;;;;;;;9.82;7.95;;;;;;;24.58;52.34;94528.84;5088304;28;20118;-77
2023/08/03 00:46:07;;;;;;;9.90;7.57;;;;;;;24.54;52.50;94523.53;5088556;28;20537;-78
2023/08/03 00:48:32;;;;;;;8.40;7.32;;;;;;;24.53;52.45;94536.06;5087759;28;20092;-77
2023/08/03 00:50:58;;;;;;;8.73;7.80;;;;;;;24.51;52.64;94526.66;5088577;28;20024;-78
2023/08/03 00:53:23;;;;;;;11.25;7.90;;;;;;;24.48;52.55;94520.06;5086632;28;20059;-78
2023/08/03 00:55:49;;;;;;;8.43;7.63;;;;;;;24.45;52.77;94531.63;5086913;28;20430;-77
2023/08/03 00:58:14;;;;;;;9.20;7.90;;;;;;;24.46;52.69;94524.72;5088410;28;20107;-77
2023/08/03 01:00:39;;;;;;;8.88;8.00;;;;;;;24.40;53.00;94524.81;5087906;28;20031;-77
2023/08/03 01:03:05;;;;;;;8.35;7.55;;;;;;;24.39;52.98;94526.13;5088754;28;20116;-78
2023/08/03 01:05:32;;;;;;;12.98;8.15;;;;;;;24.35;53.15;94528.47;5086283;28;20026;-77
2023/08/03 01:07:58;;;;;;;10.65;7.78;;;;;;;24.33;53.36;94520.56;5086619;28;20042;-77
2023/08/03 01:10:23;;;;;;;10.57;7.72;;;;;;;24.33;53.27;94528.25;5087784;28;20020;-78
2023/08/03 01:12:50;;;;;;;8.57;7.78;;;;;;;24.31;53.30;94525.94;5086162;28;20821;-77
2023/08/03 01:15:15;;;;;;;8.70;7.35;;;;;;;24.29;53.30;94527.78;5087603;28;20102;-78
2023/08/03 01:17:41;;;;;;;10.95;8.52;;;;;;;24.24;53.53;94526.59;5086307;28;20103;-78
2023/08/03 01:20:07;;;;;;;10.80;8.10;;;;;;;24.23;53.67;94533.50;5087800;28;20435;-77
2023/08/03 01:22:42;;;;;;;10.07;7.78;;;;;;;24.21;53.88;94532.53;5087524;28;20097;-76
2023/08/03 01:25:08;;;;;;;9.23;8.30;;;;;;;24.19;53.82;94523.88;5087895;28;20024;-77
2023/08/03 01:27:33;;;;;;;9.70;8.65;;;;;;;24.14;54.11;94530.34;5085662;28;20032;-77
2023/08/03 01:29:59;;;;;;;9.85;8.18;;;;;;;24.11;54.00;94524.53;5069439;28;20020;-77
2023/08/03 01:32:24;;;;;;;9.30;7.72;;;;;;;24.05;54.03;94523.84;5087269;28;20020;-76
2023/08/03 01:34:50;;;;;;;9.40;8.00;;;;;;;24.07;53.93;94526.13;5087433;28;20028;-78
2023/08/03 01:37:17;;;;;;;9.73;8.73;;;;;;;23.97;53.97;94514.56;5087190;28;20024;-77
2023/08/03 01:39:46;;;;;;;12.88;8.52;;;;;;;24.03;53.87;94534.88;5085939;28;20107;-77
2023/08/03 01:42:12;;;;;;;9.73;8.13;;;;;;;24.03;53.56;94529.25;5087415;28;20528;-77
2023/08/03 01:44:38;;;;;;;10.70;7.88;;;;;;;24.03;53.46;94531.31;5085179;28;20038;-78
2023/08/03 01:47:04;;;;;;;9.25;7.68;;;;;;;23.99;53.55;94533.66;5086111;28;20024;-77
2023/08/03 01:49:32;;;;;;;9.48;7.88;;;;;;;23.94;53.57;94532.47;5068636;28;20024;-78
2023/08/03 01:51:57;;;;;;;11.65;8.15;;;;;;;23.92;53.71;94537.09;5086080;28;20031;-78
2023/08/03 01:54:23;;;;;;;11.52;8.60;;;;;;;23.90;53.80;94536.88;5087110;28;20021;-79
2023/08/03 01:56:48;;;;;;;8.77;7.90;;;;;;;23.86;53.56;94540.00;5085831;28;20016;-76
2023/08/03 01:59:14;;;;;;;9.65;8.43;;;;;;;23.81;53.96;94538.03;5087130;28;20020;-77
2023/08/03 02:01:39;;;;;;;14.65;8.75;;;;;;;23.77;54.16;94538.34;5086321;28;20390;-76
2023/08/03 02:04:05;;;;;;;9.57;8.13;;;;;;;23.75;54.00;94545.78;5086931;28;20042;-77
2023/08/03 02:06:30;;;;;;;10.40;8.18;;;;;;;23.73;54.17;94534.31;5085088;28;20054;-77
2023/08/03 02:08:56;;;;;;;12.07;8.35;;;;;;;23.73;54.28;94539.94;5085672;28;20044;-77
2023/08/03 02:11:21;;;;;;;10.50;8.20;;;;;;;23.71;54.48;94534.88;5087119;28;20490;-77
2023/08/03 02:13:47;;;;;;;10.82;7.93;;;;;;;23.70;54.44;94535.41;5068993;28;20429;-76
2023/08/03 02:16:12;;;;;;;10.10;8.70;;;;;;;23.66;54.35;94541.31;5087497;28;20020;-77
2023/08/03 02:18:40;;;;;;;9.38;8.43;;;;;;;23.68;54.80;94537.97;5086255;28;20146;-77
2023/08/03 02:21:06;;;;;;;9.70;8.45;;;;;;;23.67;54.77;94544.88;5087146;28;20132;-78
2023/08/03 02:23:32;;;;;;;10.13;8.80;;;;;;;23.61;54.50;94542.13;5084981;28;20084;-77
2023/08/03 02:25:58;;;;;;;9.85;8.13;;;;;;;23.61;54.80;94536.50;5085859;28;20028;-77
2023/08/03 02:28:24;;;;;;;12.13;8.65;;;;;;;23.62;54.82;94540.84;5084641;28;20062;-77
2023/08/03 02:30:49;;;;;;;12.05;8.43;;;;;;;23.56;54.95;94534.53;5085455;28;20017;-77
2023/08/03 02:33:14;;;;;;;10.35;8.60;;;;;;;23.58;54.72;94546.00;5086754;28;20024;-77
2023/08/03 02:35:40;;;;;;;11.65;8.32;;;;;;;23.54;54.64;94539.94;5086065;28;20038;-76
2023/08/03 02:38:06;;;;;;;11.00;8.30;;;;;;;23.51;54.91;94547.38;5086467;28;20016;-77
2023/08/03 02:40:31;;;;;;;12.50;9.43;;;;;;;23.47;55.02;94544.13;5067769;28;20099;-77
2023/08/03 02:42:57;;;;;;;10.88;8.63;;;;;;;23.45;55.10;94543.88;5085276;28;20541;-77
2023/08/03 02:45:22;;;;;;;11.27;8.93;;;;;;;23.44;55.01;94547.97;5086064;28;20031;-77
2023/08/03 02:47:47;;;;;;;10.85;8.23;;;;;;;23.43;55.19;94551.31;5086501;28;20020;-77
2023/08/03 02:50:13;;;;;;;11.85;8.70;;;;;;;23.42;55.33;94542.16;5086158;28;20028;-77
2023/08/03 02:52:38;;;;;;;13.48;8.43;;;;;;;23.39;55.25;94546.00;5085151;28;20028;-76
2023/08/03 02:55:04;;;;;;;10.93;7.90;;;;;;;23.37;55.24;94548.59;5085271;28;20560;-77
2023/08/03 02:57:30;;;;;;;12.50;8.40;;;;;;;23.38;55.35;94552.16;5085985;28;20028;-77
2023/08/03 02:59:55;;;;;;;10.43;8.63;;;;;;;23.34;55.36;94558.06;5084974;28;20052;-77
2023/08/03 03:02:21;;;;;;;11.80;8.23;;;;;;;23.32;55.47;94552.22;5085295;28;20111;-79
2023/08/03 03:04:46;;;;;;;9.98;8.57;;;;;;;23.30;55.23;94552.00;5085057;28;20522;-76
2023/08/03 03:07:11;;;;;;;9.60;8.63;;;;;;;23.25;55.64;94545.19;5085765;28;20024;-78
2023/08/03 03:09:37;;;;;;;11.52;8.48;;;;;;;23.30;55.69;94554.81;5085741;28;20076;-78
2023/08/03 03:12:02;;;;;;;11.82;8.63;;;;;;;23.28;55.55;94562.97;5086020;28;20031;-77
2023/08/03 03:14:28;;;;;;;10.50;9.40;;;;;;;23.26;55.45;94557.91;5084288;28;20024;-77
2023/08/03 03:16:53;;;;;;;12.18;9.00;;;;;;;23.24;55.34;94568.16;5086180;28;20024;-77
2023/08/03 03:19:18;;;;;;;9.43;8.02;;;;;;;23.27;55.21;94567.81;5085152;28;20081;-77
2023/08/03 03:21:44;;;;;;;9.20;8.02;;;;;;;23.29;54.95;94575.72;5084573;28;20045;-76
2023/08/03 03:24:09;;;;;;;10.85;8.80;;;;;;;23.27;54.82;94575.47;5084091;28;20032;-77
2023/08/03 03:26:35;;;;;;;10.75;8.65;;;;;;;23.23;55.27;94575.03;5086080;28;20103;-77
2023/08/03 03:29:00;;;;;;;10.07;8.82;;;;;;;23.21;55.05;94575.56;5085562;28;20024;-77
2023/08/03 03:31:26;;;;;;;10.73;8.18;;;;;;;23.23;54.92;94575.03;5085968;28;20028;-77
2023/08/03 03:33:51;;;;;;;8.88;7.97;;;;;;;23.22;55.18;94574.25;5084717;28;20429;-77
2023/08/03 03:36:16;;;;;;;9.77;8.73;;;;;;;23.21;54.78;94581.16;5084945;28;20032;-77
2023/08/03 03:38:42;;;;;;;10.15;8.07;;;;;;;23.20;55.09;94576.09;5089590;28;20171;-77
2023/08/03 03:41:07;;;;;;;9.68;8.43;;;;;;;23.19;54.80;94569.72;5089222;28;20506;-78
2023/08/03 03:43:33;;;;;;;9.50;8.20;;;;;;;23.21;55.26;94572.75;5089483;28;20108;-77
2023/08/03 03:45:58;;;;;;;9.25;8.32;;;;;;;23.21;55.27;94574.78;5071147;28;20031;-78
2023/08/03 03:48:23;;;;;;;11.65;8.70;;;;;;;23.17;54.94;94579.94;5089398;28;20039;-78
2023/08/03 03:50:49;;;;;;;10.13;8.80;;;;;;;23.19;54.87;94575.34;5089558;28;20447;-78
2023/08/03 03:53:14;;;;;;;11.75;8.60;;;;;;;23.18;55.10;94585.03;5089371;28;20128;-78
2023/08/03 03:55:39;;;;;;;12.15;9.02;;;;;;;23.18;54.96;94578.69;5089428;28;20020;-76
2023/08/03 03:58:05;;;;;;;10.98;8.68;;;;;;;23.15;55.05;94579.72;5089132;28;20098;-77
2023/08/03 04:00:30;;;;;;;13.50;8.68;;;;;;;23.15;55.28;94576.91;5088012;28;20117;-82
2023/08/03 04:02:56;;;;;;;10.65;8.90;;;;;;;23.15;55.08;94577.66;5070381;28;20103;-81
2023/08/03 04:05:21;;;;;;;13.75;8.93;;;;;;;23.14;55.24;94583.81;5089005;28;20414;-78
2023/08/03 04:07:47;;;;;;;11.00;8.30;;;;;;;23.15;55.20;94583.28;5088670;28;20039;-80
2023/08/03 04:10:12;;;;;;;10.63;8.73;;;;;;;23.17;55.19;94582.75;5089207;28;20028;-80
2023/08/03 04:12:37;;;;;;;11.68;8.63;;;;;;;23.17;55.21;94579.94;5088786;28;20032;-80
2023/08/03 04:15:03;;;;;;;11.73;8.45;;;;;;;23.18;55.17;94593.44;5070617;28;20478;-80
2023/08/03 04:17:29;;;;;;;9.70;8.70;;;;;;;23.21;55.35;94594.41;5088751;28;20119;-80
2023/08/03 04:19:54;;;;;;;13.10;9.40;;;;;;;23.21;55.35;94594.41;5088233;28;20107;-80
2023/08/03 04:22:19;;;;;;;11.32;9.63;;;;;;;23.22;55.36;94598.75;5088550;28;20032;-80
2023/08/03 04:24:45;;;;;;;11.65;8.52;;;;;;;23.24;55.18;94601.78;5088323;28;20054;-80
2023/08/03 04:27:10;;;;;;;10.82;9.40;;;;;;;23.25;55.02;94598.44;5088699;28;20066;-79
2023/08/03 04:29:36;;;;;;;9.60;8.63;;;;;;;23.27;54.88;94603.53;5088450;28;20051;-79
2023/08/03 04:32:01;;;;;;;10.23;9.13;;;;;;;23.29;55.12;94592.56;5088667;28;20032;-79
2023/08/03 04:34:26;;;;;;;11.82;9.48;;;;;;;23.29;54.94;94598.91;5088670;28;20103;-79
2023/08/03 04:36:52;;;;;;;12.52;9.65;;;;;;;23.32;54.75;94603.44;5088038;28;20055;-80
2023/08/03 04:39:17;;;;;;;12.63;9.00;;;;;;;23.31;54.63;94598.38;5088955;28;20024;-80
2023/08/03 04:41:42;;;;;;;11.10;9.38;;;;;;;23.35;54.19;94604.47;5088911;28;20020;-80
2023/08/03 04:44:08;;;;;;;12.40;9.05;;;;;;;23.35;54.76;94606.50;5089303;28;20493;-80
2023/08/03 04:46:33;;;;;;;12.35;9.23;;;;;;;23.32;54.22;94608.31;5086907;28;20095;-80
2023/08/03 04:48:59;;;;;;;15.85;9.10;;;;;;;23.35;54.16;94609.31;5088468;28;20043;-81
2023/08/03 04:51:24;;;;;;;10.70;9.13;;;;;;;23.29;54.21;94609.38;5092372;28;20035;-81
2023/08/03 04:53:49;;;;;;;10.13;9.13;;;;;;;23.30;54.71;94614.44;5087172;28;20028;-81
2023/08/03 04:56:15;;;;;;;11.70;9.50;;;;;;;23.34;54.65;94616.97;5087155;28;20020;-82
2023/08/03 04:58:40;;;;;;;10.93;8.77;;;;;;;23.38;54.47;94625.81;5085967;28;20078;-82
2023/08/03 05:01:06;;;;;;;11.90;9.52;;;;;;;23.35;54.46;94623.34;5086808;28;20034;-82
2023/08/03 05:03:31;;;;;;;12.38;10.25;;;;;;;23.39;54.46;94618.91;5087270;28;20034;-82
2023/08/03 05:05:56;;;;;;;15.20;9.80;;;;;;;23.41;54.21;94621.97;5088135;28;20035;-82
2023/08/03 05:08:23;;;;;;;10.63;8.73;;;;;;;23.44;54.49;94620.91;5087656;28;20036;-82
2023/08/03 05:10:51;;;;;;;13.70;9.32;;;;;;;23.46;54.48;94629.56;5086725;28;20089;-84
2023/08/03 05:13:17;;;;;;;12.10;9.32;;;;;;;23.44;54.65;94631.34;5088080;28;20085;-83
2023/08/03 05:15:44;;;;;;;12.50;9.57;;;;;;;23.50;54.50;94626.44;5087343;28;20032;-83
2023/08/03 05:18:09;;;;;;;11.70;9.10;;;;;;;23.49;54.65;94627.72;5087915;28;20115;-82
2023/08/03 05:20:35;;;;;;;16.33;10.00;;;;;;;23.54;54.16;94624.84;5087146;28;20131;-82
2023/08/03 05:23:00;;;;;;;16.77;9.68;;;;;;;23.54;54.39;94627.66;5069424;28;20024;-82
2023/08/03 05:25:25;;;;;;;11.80;9.60;;;;;;;23.61;54.13;94631.91;5086915;28;20056;-82
2023/08/03 05:27:51;;;;;;;14.63;10.07;;;;;;;23.62;54.43;94630.63;5087739;28;20093;-82
2023/08/03 05:30:16;;;;;;;15.82;10.00;;;;;;;23.68;54.34;94631.31;5087528;28;20032;-81
2023/08/03 05:32:42;;;;;;;17.58;10.77;;;;;;;23.72;54.40;94636.63;5087542;28;20020;-82
2023/08/03 05:35:07;;;;;;;12.85;9.73;;;;;;;23.73;54.27;94635.34;5086242;28;20517;-82
2023/08/03 05:37:32;;;;;;;16.13;10.40;;;;;;;23.76;54.32;94634.28;5085259;28;20020;-82
2023/08/03 05:40:02;;;;;;;12.75;10.05;;;;;;;23.76;54.08;94635.06;5087381;28;20028;-82
2023/08/03 05:42:35;;;;;;;13.98;9.93;;;;;;;23.82;53.96;94632.16;5085208;28;20174;-82
2023/08/03 05:45:06;;;;;;;13.13;9.80;;;;;;;23.83;54.06;94633.69;5085937;28;20032;-82
2023/08/03 05:47:31;;;;;;;17.70;10.88;;;;;;;23.86;53.93;94638.25;5085568;28;20039;-81
2023/08/03 05:49:56;;;;;;;11.57;10.32;;;;;;;23.88;53.67;94635.66;5087044;28;20024;-80
2023/08/03 05:52:22;;;;;;;12.68;9.95;;;;;;;23.93;53.80;94646.03;5070422;28;20085;-81
2023/08/03 05:54:48;;;;;;;16.63;9.50;;;;;;;23.98;53.70;94639.59;5089793;28;20056;-81
2023/08/03 05:57:17;;;;;;;11.75;10.00;;;;;;;24.00;53.70;94645.41;5085877;28;20016;-81
2023/08/03 05:59:43;;;;;;;12.20;9.73;;;;;;;24.04;53.49;94645.13;5086499;28;20028;-81
2023/08/03 06:02:30;;;;;;;11.63;10.35;;;;;;;24.09;53.40;94647.84;5086927;28;20024;-83
2023/08/03 06:04:55;;;;;;;11.32;10.13;;;;;;;24.11;53.34;94650.13;5086001;28;20076;-83
2023/08/03 06:07:20;;;;;;;16.33;11.23;;;;;;;24.18;53.53;94651.53;5086700;28;20028;-81
2023/08/03 06:09:48;;;;;;;14.93;9.77;;;;;;;24.18;53.46;94649.50;5085587;28;20510;-81
2023/08/03 06:12:15;;;;;;;17.52;10.50;;;;;;;24.26;53.25;94660.88;5068256;28;20694;-81
2023/08/03 06:14:40;;;;;;;13.35;10.07;;;;;;;24.31;53.18;94652.34;5086870;28;20111;-81
2023/08/03 06:17:06;;;;;;;12.48;10.23;;;;;;;24.25;52.68;94643.25;5086118;28;20112;-81
2023/08/03 06:19:31;;;;;;;16.73;10.25;;;;;;;24.38;52.61;94642.59;5085127;28;20028;-82
2023/08/03 06:22:03;;;;;;;13.05;10.63;;;;;;;24.43;52.72;94650.16;5085083;28;20460;-82
2023/08/03 06:24:28;;;;;;;14.40;10.45;;;;;;;24.51;52.66;94650.28;5067967;28;20526;-82
2023/08/03 06:26:53;;;;;;;15.00;10.95;;;;;;;24.54;52.08;94652.00;5085571;28;20498;-82
2023/08/03 06:29:19;;;;;;;17.17;10.57;;;;;;;24.62;52.29;94655.72;5086026;28;20024;-81
2023/08/03 06:31:44;;;;;;;13.15;9.80;;;;;;;24.68;52.08;94652.81;5086718;28;20024;-81
2023/08/03 06:34:12;;;;;;;14.65;9.48;;;;;;;24.73;52.11;94654.78;5084620;28;20074;-81
2023/08/03 06:36:37;;;;;;;13.27;10.10;;;;;;;24.83;51.68;94651.03;5084821;28;20024;-81
2023/08/03 06:39:03;;;;;;;12.07;9.75;;;;;;;24.88;51.84;94658.56;5086192;28;20031;-81
2023/08/03 06:41:28;;;;;;;10.88;9.48;;;;;;;24.93;52.02;94654.16;5084898;28;20039;-81
2023/08/03 06:43:55;;;;;;;12.90;9.68;;;;;;;25.00;51.91;94653.50;5086582;28;20024;-82
2023/08/03 06:46:20;;;;;;;11.73;10.10;;;;;;;25.09;51.70;94655.94;5084910;28;20024;-81
2023/08/03 06:48:46;;;;;;;12.65;9.98;;;;;;;25.20;51.12;94663.41;5086001;28;20072;-81
2023/08/03 06:51:12;;;;;;;11.93;9.85;;;;;;;25.28;51.00;94666.31;5084568;28;20036;-80
2023/08/03 06:53:38;;;;;;;15.68;11.02;;;;;;;25.35;50.80;94665.69;5084776;28;20077;-81
2023/08/03 06:56:03;;;;;;;13.13;10.35;;;;;;;25.43;50.62;94658.84;5086619;28;20036;-83
2023/08/03 06:58:28;;;;;;;13.48;9.98;;;;;;;25.52;50.65;94657.66;5088312;28;20024;-80
2023/08/03 07:00:54;;;;;;;10.90;9.63;;;;;;;25.64;50.03;94655.38;5084993;28;20020;-82
2023/08/03 07:03:19;;;;;;;12.23;9.95;;;;;;;25.68;50.18;94662.16;5084814;28;20016;-81
2023/08/03 07:05:45;;;;;;;10.90;9.80;;;;;;;25.76;50.05;94650.28;5086279;28;20025;-83
2023/08/03 07:08:11;;;;;;;13.48;9.68;;;;;;;25.86;49.84;94656.97;5085600;28;20114;-82
2023/08/03 07:10:37;;;;;;;11.40;10.05;;;;;;;25.93;49.76;94656.31;5085963;28;20451;-78
2023/08/03 07:13:03;;;;;;;17.35;10.15;;;;;;;26.03;49.37;94657.34;5089195;28;20024;-80
2023/08/03 07:15:33;;;;;;;13.93;9.52;;;;;;;26.09;49.11;94655.19;5071850;28;20519;-81
2023/08/03 07:18:03;;;;;;;15.70;10.32;;;;;;;26.20;48.42;94651.34;5089930;28;20032;-79
2023/08/03 07:20:28;;;;;;;12.95;9.82;;;;;;;26.27;48.42;94652.75;5088544;28;20028;-79
2023/08/03 07:22:53;;;;;;;16.33;9.77;;;;;;;26.34;48.69;94652.81;5090199;28;20063;-80
2023/08/03 07:25:19;;;;;;;12.80;10.38;;;;;;;26.45;48.44;94651.81;5071102;28;20035;-80
2023/08/03 07:27:44;;;;;;;13.50;9.35;;;;;;;26.54;48.16;94645.69;5089926;28;20020;-79
2023/08/03 07:30:10;;;;;;;12.20;9.77;;;;;;;26.63;48.28;94641.66;5089501;28;20103;-79
2023/08/03 07:32:35;;;;;;;13.77;9.77;;;;;;;26.75;47.85;94642.88;5089741;28;20058;-80
2023/08/03 07:35:01;;;;;;;13.63;9.50;;;;;;;26.86;47.64;94642.59;5088050;28;20421;-80
2023/08/03 07:37:27;;;;;;;13.93;10.10;;;;;;;26.96;47.40;94637.22;5089378;28;20020;-80
2023/08/03 07:39:52;;;;;;;13.93;10.15;;;;;;;27.06;46.86;94640.28;5089898;28;20032;-80
2023/08/03 07:42:18;;;;;;;12.98;9.98;;;;;;;27.16;46.65;94644.88;5089249;28;20039;-79
2023/08/03 07:44:43;;;;;;;12.52;9.70;;;;;;;27.27;46.30;94638.94;5089706;28;20035;-80
2023/08/03 07:47:09;;;;;;;14.70;10.13;;;;;;;27.37;46.12;94639.19;5089415;28;20097;-80
2023/08/03 07:49:34;;;;;;;13.98;10.20;;;;;;;27.49;45.74;94639.63;5089418;28;20032;-79
2023/08/03 07:51:59;;;;;;;16.48;10.88;;;;;;;27.68;45.11;94636.53;5088929;28;20020;-79
2023/08/03 07:54:25;;;;;;;13.77;10.57;;;;;;;27.72;45.33;94634.13;5088971;28;20028;-79
2023/08/03 07:56:50;;;;;;;12.70;9.82;;;;;;;27.84;44.72;94637.38;5089383;28;20135;-80
2023/08/03 07:59:16;;;;;;;15.05;10.63;;;;;;;27.93;44.85;94634.78;5089447;28;20487;-80
2023/08/03 08:01:43;;;;;;;11.32;9.73;;;;;;;28.07;44.22;94629.72;5088746;28;20062;-80
2023/08/03 08:04:09;;;;;;;12.15;9.82;;;;;;;28.18;44.12;94625.81;5088660;28;20505;-80
2023/08/03 08:06:35;;;;;;;14.70;10.27;;;;;;;28.28;43.40;94635.25;5088950;28;20044;-80
2023/08/03 08:09:00;;;;;;;11.57;10.48;;;;;;;28.38;43.06;94632.66;5088441;28;20048;-80
2023/08/03 08:11:26;;;;;;;12.75;10.63;;;;;;;28.49;42.64;94620.97;5088841;28;20031;-80
2023/08/03 08:13:51;;;;;;;12.98;10.95;;;;;;;28.54;42.82;94634.19;5088792;28;20434;-81
2023/08/03 08:16:17;;;;;;;10.95;9.70;;;;;;;28.65;42.92;94627.41;5089229;28;20028;-80
2023/08/03 08:18:42;;;;;;;11.07;9.80;;;;;;;28.76;42.47;94636.28;5088598;28;20028;-80
2023/08/03 08:21:10;;;;;;;15.13;10.02;;;;;;;28.84;42.48;94628.53;5088438;28;20016;-80
2023/08/03 08:23:36;;;;;;;16.67;9.95;;;;;;;28.97;42.22;94624.81;5087569;28;20035;-81
2023/08/03 08:26:03;;;;;;;10.85;9.75;;;;;;;29.14;41.74;94621.38;5088368;28;20028;-80
2023/08/03 08:28:29;;;;;;;13.27;10.80;;;;;;;29.24;41.45;94619.47;5087179;28;20062;-79
2023/08/03 08:30:54;;;;;;;11.40;9.77;;;;;;;29.36;41.22;94619.81;5088264;28;20023;-80
2023/08/03 08:33:19;;;;;;;12.77;9.77;;;;;;;29.46;40.75;94611.50;5088731;28;20046;-81
2023/08/03 08:35:46;;;;;;;11.38;9.98;;;;;;;29.53;40.31;94611.50;5088669;28;20026;-81
2023/08/03 08:38:12;;;;;;;13.60;10.10;;;;;;;29.62;40.28;94607.31;5086817;28;20028;-80
2023/08/03 08:40:39;;;;;;;15.05;11.43;;;;;;;29.74;40.03;94614.06;5088648;28;20046;-81
2023/08/03 08:43:04;;;;;;;14.60;10.55;;;;;;;29.79;39.93;94601.78;5087889;28;20032;-81
2023/08/03 08:45:33;;;;;;;13.88;9.90;;;;;;;29.89;39.27;94597.00;5087106;28;20031;-81
2023/08/03 08:47:58;;;;;;;12.18;9.90;;;;;;;29.97;39.58;94601.88;5086716;28;20028;-81
2023/08/03 08:50:24;;;;;;;12.88;9.90;;;;;;;30.11;39.33;94597.50;5088799;28;20020;-81
2023/08/03 08:52:51;;;;;;;13.98;11.35;;;;;;;30.23;38.82;94601.41;5088070;28;20024;-81
2023/08/03 08:55:19;;;;;;;12.90;10.85;;;;;;;30.34;38.51;94600.19;5088085;28;20028;-81
2023/08/03 08:57:44;;;;;;;10.38;9.38;;;;;;;30.49;38.28;94599.31;5086823;28;20032;-81
2023/08/03 09:00:11;;;;;;;11.88;8.48;;;;;;;30.61;37.66;94598.28;5088063;28;20024;-81
2023/08/03 09:02:37;;;;;;;14.95;8.82;;;;;;;30.72;36.71;94605.59;5088439;28;20039;-81
2023/08/03 09:05:19;;;;;;;12.63;8.57;;;;;;;30.83;36.79;94599.47;5087883;28;20071;-81
2023/08/03 09:07:56;;;;;;;12.07;8.77;;;;;;;30.97;36.77;94599.16;5087854;28;20161;-80
2023/08/03 09:10:21;;;;;;;9.32;8.20;;;;;;;31.12;35.81;94594.09;5086657;28;20036;-80
2023/08/03 09:12:46;;;;;;;8.93;8.13;;;;;;;31.23;35.94;94590.00;5087535;28;20035;-81
2023/08/03 09:15:12;;;;;;;9.30;8.38;;;;;;;31.38;35.89;94591.97;5087075;28;20111;-81
2023/08/03 09:17:37;;;;;;;9.57;8.68;;;;;;;31.57;35.66;94589.28;5086756;28;20039;-80
2023/08/03 09:20:03;;;;;;;12.35;8.63;;;;;;;31.72;35.51;94589.13;5086286;28;20076;-81
2023/08/03 09:22:28;;;;;;;10.45;8.75;;;;;;;31.91;35.13;94587.78;5086918;28;20521;-81
2023/08/03 09:25:07;;;;;;;9.48;8.48;;;;;;;32.01;35.03;94585.00;5088125;28;20150;-81
2023/08/03 09:27:33;;;;;;;9.70;8.38;;;;;;;32.13;34.78;94585.97;5086422;28;20073;-81
2023/08/03 09:30:03;;;;;;;9.75;8.75;;;;;;;32.32;34.26;94582.47;5087611;28;20489;-80
2023/08/03 09:32:34;;;;;;;10.32;8.75;;;;;;;32.44;34.58;94575.66;5087633;28;20065;-80
2023/08/03 09:35:03;;;;;;;11.15;8.63;;;;;;;32.59;33.85;94574.69;5086790;28;20028;-80
2023/08/03 09:37:33;;;;;;;10.88;9.05;;;;;;;32.76;33.56;94568.91;5085983;28;20032;-80
2023/08/03 09:39:59;;;;;;;10.50;8.20;;;;;;;32.95;33.06;94564.66;5085847;28;20110;-80
2023/08/03 09:42:25;;;;;;;8.77;7.88;;;;;;;33.03;33.25;94566.03;5086378;28;20593;-80
2023/08/03 09:44:53;;;;;;;10.45;8.77;;;;;;;33.23;33.24;94557.50;5088173;28;20028;-81
2023/08/03 09:47:19;;;;;;;12.27;8.90;;;;;;;33.40;32.54;94562.31;5087733;28;20098;-81
2023/08/03 09:49:45;;;;;;;11.57;9.20;;;;;;;33.52;32.78;94558.28;5069053;28;20422;-81
2023/08/03 09:52:13;;;;;;;10.23;8.07;;;;;;;33.74;32.02;94558.44;5086953;28;20024;-80
2023/08/03 09:54:42;;;;;;;8.98;7.60;;;;;;;33.91;31.84;94560.38;5086825;28;20024;-81
2023/08/03 09:57:10;;;;;;;11.43;7.85;;;;;;;34.05;31.22;94561.41;5086524;28;20032;-81
2023/08/03 09:59:36;;;;;;;12.40;8.48;;;;;;;34.23;30.95;94559.09;5085816;28;20024;-81
2023/08/03 10:02:02;;;;;;;11.18;8.50;;;;;;;34.36;30.99;94550.06;5085463;28;20493;-79
2023/08/03 10:04:32;;;;;;;9.35;8.45;;;;;;;34.51;30.71;94546.88;5085225;28;20043;-82
2023/08/03 10:07:02;;;;;;;10.50;8.10;;;;;;;34.75;30.28;94552.75;5088198;28;20028;-81
2023/08/03 10:09:29;;;;;;;9.40;8.55;;;;;;;34.90;30.10;94545.94;5085796;28;20113;-80
2023/08/03 10:11:57;;;;;;;9.38;7.95;;;;;;;35.13;29.51;94554.69;5085632;28;20051;-79
2023/08/03 10:14:28;;;;;;;10.73;8.35;;;;;;;35.33;29.28;94541.78;5085151;28;20031;-80
2023/08/03 10:16:54;;;;;;;8.85;7.75;;;;;;;35.55;29.32;94545.38;5085603;28;20028;-81
2023/08/03 10:19:20;;;;;;;9.90;8.93;;;;;;;35.81;28.85;94537.78;5086654;28;20349;-81
2023/08/03 10:21:46;;;;;;;9.45;7.95;;;;;;;35.97;28.66;94540.97;5084910;28;20028;-81
2023/08/03 10:24:17;;;;;;;11.23;7.82;;;;;;;36.06;27.31;94531.53;5086950;28;20032;-81
2023/08/03 10:26:44;;;;;;;8.95;7.97;;;;;;;36.27;27.46;94524.25;5086148;28;20027;-81
2023/08/03 10:29:10;;;;;;;9.00;8.20;;;;;;;36.39;27.79;94522.88;5068320;28;20032;-80
2023/08/03 10:31:53;;;;;;;8.50;7.70;;;;;;;36.53;26.39;94517.34;5084598;28;20033;-80
2023/08/03 10:34:29;;;;;;;11.48;7.68;;;;;;;36.67;26.29;94503.13;5086606;28;20460;-81
2023/08/03 10:36:56;;;;;;;8.88;7.65;;;;;;;36.81;26.68;94509.69;5086738;28;20027;-81
2023/08/03 10:39:47;;;;;;;8.52;7.72;;;;;;;36.95;26.93;94504.88;5086187;28;20539;-80
2023/08/03 10:42:29;;;;;;;8.88;8.02;;;;;;;37.17;26.60;94508.31;5085128;28;20490;-81
2023/08/03 10:45:15;;;;;;;11.93;8.45;;;;;;;37.36;26.37;94509.41;5085908;28;20491;-82
2023/08/03 10:47:40;;;;;;;8.63;7.78;;;;;;;37.52;26.68;94503.88;5085431;28;20417;-81
2023/08/03 10:50:06;;;;;;;8.43;7.63;;;;;;;37.63;25.71;94503.84;5086609;28;20020;-82
2023/08/03 10:52:32;;;;;;;9.43;8.02;;;;;;;37.58;25.35;94510.72;5085767;28;20024;-81
2023/08/03 10:54:58;;;;;;;8.32;7.57;;;;;;;37.59;25.64;94505.72;5086380;28;20445;-81
2023/08/03 10:57:29;;;;;;;8.52;7.65;;;;;;;37.68;25.78;94496.94;5085771;28;20020;-81
2023/08/03 10:59:58;;;;;;;9.82;7.60;;;;;;;37.81;26.07;94497.63;5086448;28;20081;-81
2023/08/03 11:02:33;;;;;;;8.20;7.40;;;;;;;37.89;25.38;94500.97;5085879;28;20406;-81
2023/08/03 11:05:06;;;;;;;8.48;7.68;;;;;;;38.06;25.17;94491.16;5085080;28;20077;-81
2023/08/03 11:07:40;;;;;;;8.32;7.53;;;;;;;38.22;24.81;94486.31;5086478;28;20028;-80
2023/08/03 11:10:13;;;;;;;8.98;8.07;;;;;;;38.31;25.00;94487.50;5088010;28;20036;-81
2023/08/03 11:12:40;;;;;;;9.25;8.32;;;;;;;38.43;24.42;94480.31;5084870;28;20044;-79
2023/08/03 11:15:07;;;;;;;7.88;7.03;;;;;;;38.49;24.58;94477.78;5085951;28;20031;-79
2023/08/03 11:17:34;;;;;;;9.35;7.07;;;;;;;38.57;24.16;94476.72;5086081;28;20067;-80
2023/08/03 11:20:00;;;;;;;7.78;7.05;;;;;;;38.69;24.33;94486.72;5084736;28;20036;-78
2023/08/03 11:22:28;;;;;;;7.43;6.43;;;;;;;38.45;23.76;94471.81;5085866;28;20114;-78